Terminal Aerodrome Forecast
Issued by NWS Paducah, KY

Home | Current Version | Previous Version | Text Only | Print | Product List | Glossary Off
Versions: 1 2 3 4 5 6 7 8 9 10 11 12 13 14 15 16 17 18

000
FTUS43 KPAH 271700
TAFEVV
TAF
KEVV 271740Z 2718/2818 30011G16KT P6SM BKN015
     FM272300 VRB02KT P6SM SCT020
     FM280600 00000KT P6SM BKN090
     FM281500 16007KT P6SM SKC=

USA.gov is the U.S. government's official web portal to all federal, state and local government web resources and services.